LTFJ/SAW METAR and TAF weather

Enter ICAO airport designator
Station Type Date Time Source
LTFJ METAR 2022/06/27 09:20 UTC NOAA

LTFJ 270920Z 21008KT 180V240 9999 BKN030 23/20 Q1015 BECMG 01012KT


Station Type Date Time Source
LTFJ Decoded METAR 2022/06/27 09:20 UTC NOAA

Istanbul / Sabiha Gokcen, Turkey (LTFJ) 40-53-55N 029-18-33E
Jun 27, 2022 - 05:20 AM EDT / 2022.06.27 0920 UTC
Wind: from the SSW (210 degrees) at 9 MPH (8 KT) (direction variable):0
Visibility: greater than 7 mile(s):0
Sky conditions: mostly cloudy
Temperature: 73 F (23 C)
Dew Point: 68 F (20 C)
Relative Humidity: 83%
Pressure (altimeter): 29.97 in. Hg (1015 hPa)
ob: LTFJ 270920Z 21008KT 180V240 9999 BKN030 23/20 Q1015 BECMG 01012KT
cycle: 9

Station Type Date Time Source
LTFJ TAF 2022/06/27 06:03 UTC NOAA

TAF LTFJ 270440Z 2706/2806 01012KT 9999 SCT035
TEMPO 2707/2711 -SHRA BKN030
TEMPO 2711/2715 35016G26KT -TSRA FEW020CB BKN030
TEMPO 2716/2719 4000 SHRA FEW020CB BKN030
BECMG 2719/2721 VRB02KT
TEMPO 2722/2802 -SHRA BKN030

Example: see airport list